Time;durP1;ratioP1;P1;durP2;ratioP2;P2;SDS_P1;SDS_P2;PMS_P1;PMS_P2;Temp;Humidity;BMP_temperature;BMP_pressure;BME280_temperature;BME280_humidity;BME280_pressure;Samples;Min_cycle;Max_cycle;Signal;HPM_P1;HPM_P2
2023/07/25 00:04:52;;;;;;;13.30;9.00;;;;;;;17.81;84.86;97524.45;226654;1275;22556;-70
2023/07/25 00:09:55;;;;;;;12.90;8.70;;;;;;;17.80;85.04;97536.38;226627;1275;22568;-70
2023/07/25 00:14:57;;;;;;;10.30;9.10;;;;;;;17.78;84.92;97532.68;226662;1275;22526;-69
2023/07/25 00:20:11;;;;;;;12.60;8.70;;;;;;;17.79;84.81;97536.31;226681;1272;22529;-69
2023/07/25 00:25:18;;;;;;;11.60;9.10;;;;;;;17.79;84.68;97545.09;226665;1272;22533;-69
2023/07/25 00:30:24;;;;;;;13.70;9.10;;;;;;;17.76;84.63;97531.02;226602;1275;22543;-69
2023/07/25 00:35:29;;;;;;;11.40;8.50;;;;;;;17.73;84.71;97525.66;226502;1275;22562;-69
2023/07/25 00:40:31;;;;;;;10.10;8.20;;;;;;;17.72;84.65;97538.59;226704;1272;22537;-69
2023/07/25 00:45:36;;;;;;;10.50;8.10;;;;;;;17.72;84.60;97538.70;226640;1270;22538;-69
2023/07/25 00:50:38;;;;;;;11.20;7.90;;;;;;;17.72;84.61;97534.68;226680;1275;22529;-69
2023/07/25 00:56:17;;;;;;;11.50;8.20;;;;;;;17.70;84.55;97538.10;226479;1268;22566;-69
2023/07/25 01:01:53;;;;;;;11.20;7.50;;;;;;;17.66;84.61;97535.52;226562;1276;22546;-69
2023/07/25 01:07:12;;;;;;;11.30;8.30;;;;;;;17.62;84.50;97548.42;226703;1262;23660;-70
2023/07/25 01:12:20;;;;;;;9.90;8.00;;;;;;;17.57;84.67;97554.01;226761;1272;22534;-69
2023/07/25 01:17:26;;;;;;;12.50;8.30;;;;;;;17.54;84.49;97544.81;226694;1272;22557;-69
2023/07/25 01:23:00;;;;;;;11.90;8.20;;;;;;;17.51;84.66;97536.32;226690;1272;22533;-69
2023/07/25 01:28:37;;;;;;;11.50;8.10;;;;;;;17.47;84.77;97543.84;226641;1276;22574;-69
2023/07/25 01:33:44;;;;;;;12.50;8.80;;;;;;;17.46;84.76;97545.92;226651;1270;25269;-69
2023/07/25 01:39:32;;;;;;;11.20;8.00;;;;;;;17.45;85.08;97549.28;226483;1276;22535;-69
2023/07/25 01:45:01;;;;;;;11.10;8.40;;;;;;;17.44;84.99;97546.66;226644;1276;22550;-69
2023/07/25 01:50:11;;;;;;;11.10;8.00;;;;;;;17.44;84.87;97558.68;226699;1272;22606;-69
2023/07/25 01:55:22;;;;;;;10.70;8.60;;;;;;;17.44;84.89;97563.33;226662;1276;22535;-69
2023/07/25 02:00:30;;;;;;;10.60;8.40;;;;;;;17.42;84.76;97567.16;226639;1276;22530;-69
2023/07/25 02:05:50;;;;;;;12.80;8.40;;;;;;;17.42;84.86;97574.73;226706;1272;22627;-69
2023/07/25 02:11:23;;;;;;;12.10;8.20;;;;;;;17.40;84.91;97585.67;226726;1276;22523;-69
2023/07/25 02:16:47;;;;;;;;;;;;;;;;;;;;;
2023/07/25 02:22:22;;;;;;;10.80;7.60;;;;;;;17.40;84.62;97583.11;226584;1276;22534;-69
2023/07/25 02:28:19;;;;;;;11.00;7.70;;;;;;;17.41;84.65;97579.91;226725;1276;22615;-69
2023/07/25 02:34:01;;;;;;;;;;;;;;;;;;;;;
2023/07/25 02:39:48;;;;;;;9.40;7.50;;;;;;;17.44;84.33;97568.30;226669;1276;22543;-69
2023/07/25 02:45:16;;;;;;;11.70;7.20;;;;;;;17.42;84.20;97576.92;226666;1268;25274;-69
2023/07/25 02:50:22;;;;;;;10.90;7.30;;;;;;;17.40;84.24;97580.92;226506;1275;22537;-69
2023/07/25 02:55:25;;;;;;;10.20;7.60;;;;;;;17.36;84.06;97588.45;226626;1276;22737;-69
2023/07/25 03:00:54;;;;;;;11.90;7.60;;;;;;;17.29;84.19;97583.50;226640;1276;22552;-69
2023/07/25 03:05:59;;;;;;;12.40;7.40;;;;;;;17.24;84.34;97590.36;226690;1272;22537;-69
2023/07/25 03:11:04;;;;;;;11.80;7.70;;;;;;;17.19;84.43;97606.16;226695;1276;22534;-69
2023/07/25 03:16:15;;;;;;;12.30;7.80;;;;;;;17.18;84.48;97622.38;226706;1260;22558;-69
2023/07/25 03:21:26;;;;;;;11.40;8.00;;;;;;;17.17;84.71;97618.10;226633;1276;22680;-69
2023/07/25 03:26:51;;;;;;;;;;;;;;;;;;;;;
2023/07/25 03:32:04;;;;;;;12.90;8.00;;;;;;;17.13;84.35;97605.90;226687;1272;22602;-69
2023/07/25 03:37:14;;;;;;;12.50;8.10;;;;;;;17.12;84.61;97603.33;226742;1272;22627;-69
2023/07/25 03:42:25;;;;;;;11.30;7.80;;;;;;;17.10;84.64;97609.02;226541;1276;22585;-69
2023/07/25 03:47:48;;;;;;;13.20;7.30;;;;;;;17.10;84.51;97598.56;226684;1276;23242;-69
2023/07/25 03:53:17;;;;;;;12.00;7.30;;;;;;;17.16;84.45;97585.79;226758;1276;22570;-69
2023/07/25 03:58:29;;;;;;;11.00;6.90;;;;;;;17.38;84.27;97589.48;226664;1275;24230;-70
2023/07/25 04:03:45;;;;;;;12.20;7.00;;;;;;;17.53;84.07;97586.38;226668;1276;22529;-69
2023/07/25 04:09:11;;;;;;;10.20;6.70;;;;;;;17.71;83.93;97599.98;226764;1276;22546;-70
2023/07/25 04:14:21;;;;;;;10.20;7.20;;;;;;;17.89;83.62;97595.12;226653;1276;22598;-69
2023/07/25 04:19:29;;;;;;;9.40;6.80;;;;;;;18.05;83.51;97593.23;226667;1275;22540;-69
2023/07/25 04:24:40;;;;;;;10.50;6.60;;;;;;;18.19;83.20;97592.12;226669;1276;22538;-70
2023/07/25 04:30:35;;;;;;;11.00;6.30;;;;;;;18.36;82.90;97587.27;226773;1276;22524;-70
2023/07/25 04:36:07;;;;;;;9.50;6.40;;;;;;;18.51;82.38;97591.71;226590;1276;22534;-70
2023/07/25 04:42:15;;;;;;;9.20;6.30;;;;;;;18.60;81.95;97599.05;226592;1276;22564;-72
2023/07/25 04:53:41;;;;;;;8.80;6.60;;;;;;;18.80;81.56;97600.87;226634;1276;22626;-70
2023/07/25 04:58:53;;;;;;;10.20;6.40;;;;;;;18.95;81.64;97600.79;226614;1276;22652;-70
2023/07/25 05:04:27;;;;;;;10.30;6.40;;;;;;;19.12;81.41;97606.59;226697;1276;22541;-70
2023/07/25 05:09:36;;;;;;;8.10;6.40;;;;;;;19.28;81.29;97603.02;226725;1276;22534;-70
2023/07/25 05:14:51;;;;;;;11.70;7.00;;;;;;;19.44;80.98;97595.09;226697;1276;22554;-70
2023/07/25 05:20:13;;;;;;;11.10;6.50;;;;;;;19.62;80.96;97588.92;226587;1276;22549;-70
2023/07/25 05:25:30;;;;;;;7.50;5.50;;;;;;;19.83;80.81;97586.45;226676;1276;22561;-70
2023/07/25 05:30:45;;;;;;;7.40;6.00;;;;;;;20.00;80.50;97586.58;226738;1276;24903;-70
2023/07/25 05:36:03;;;;;;;7.60;5.60;;;;;;;20.15;79.85;97572.15;226696;1276;22606;-70
2023/07/25 05:41:29;;;;;;;;;;;;;;;;;;;;;
2023/07/25 05:46:52;;;;;;;8.40;5.50;;;;;;;20.44;79.27;97579.58;226501;1271;22557;-70
2023/07/25 05:52:39;;;;;;;8.90;5.40;;;;;;;20.63;78.80;97578.55;226532;1275;22604;-70
2023/07/25 05:57:44;;;;;;;9.40;5.00;;;;;;;20.79;78.37;97591.08;226406;1269;22520;-71
2023/07/25 06:02:46;;;;;;;7.60;4.90;;;;;;;20.93;77.81;97589.33;226103;1270;26181;-71
2023/07/25 06:07:51;;;;;;;7.10;5.80;;;;;;;21.09;77.50;97592.34;226230;1260;22527;-71
2023/07/25 06:13:05;;;;;;;8.60;5.10;;;;;;;21.26;76.95;97602.35;226377;1263;22537;-71
2023/07/25 06:18:33;;;;;;;7.30;6.00;;;;;;;21.45;76.64;97603.80;226283;1261;22538;-71
2023/07/25 06:23:39;;;;;;;6.20;5.20;;;;;;;21.61;76.10;97604.02;226357;1268;22565;-73
2023/07/25 06:28:51;;;;;;;5.10;4.50;;;;;;;21.83;75.86;97590.52;226522;1257;24304;-72
2023/07/25 06:33:53;;;;;;;7.20;4.80;;;;;;;22.00;75.31;97583.84;226331;1261;24234;-72
2023/07/25 06:39:00;;;;;;;6.80;4.60;;;;;;;22.15;74.15;97581.42;226014;1258;22577;-72
2023/07/25 06:44:05;;;;;;;5.40;4.60;;;;;;;22.35;73.30;97583.11;226010;1257;24251;-72
2023/07/25 06:49:09;;;;;;;5.50;4.70;;;;;;;22.52;72.49;97583.48;226148;1253;25284;-72
2023/07/25 06:54:15;;;;;;;5.10;4.60;;;;;;;22.67;71.77;97577.89;226431;1255;22592;-72
2023/07/25 06:59:29;;;;;;;6.20;5.10;;;;;;;22.76;70.90;97582.88;226437;1261;22533;-71
2023/07/25 07:04:37;;;;;;;7.20;5.00;;;;;;;22.96;70.82;97574.92;226297;1261;23233;-71
2023/07/25 07:09:56;;;;;;;5.70;4.60;;;;;;;23.25;70.20;97576.71;226319;1253;23373;-72
2023/07/25 07:15:21;;;;;;;5.60;4.90;;;;;;;23.42;69.15;97568.73;226541;1263;24224;-71
2023/07/25 07:20:31;;;;;;;5.30;4.80;;;;;;;23.51;68.61;97570.96;226244;1253;22556;-71
2023/07/25 07:25:36;;;;;;;5.80;5.10;;;;;;;23.58;68.18;97550.63;226086;1269;22556;-72
2023/07/25 07:30:39;;;;;;;7.50;5.70;;;;;;;23.66;67.63;97542.47;226426;1257;22728;-71
2023/07/25 07:35:45;;;;;;;5.80;5.30;;;;;;;23.85;67.05;97534.27;226170;1261;22551;-71
2023/07/25 07:40:53;;;;;;;6.10;5.50;;;;;;;24.27;66.58;97530.92;226252;1270;22547;-72
2023/07/25 07:46:16;;;;;;;6.30;5.70;;;;;;;24.71;66.07;97567.23;226088;1261;22539;-73
2023/07/25 07:51:18;;;;;;;8.30;5.60;;;;;;;25.00;64.86;97581.91;226296;1267;22592;-74
2023/07/25 07:56:26;;;;;;;7.60;5.90;;;;;;;25.04;63.96;97586.77;226324;1270;22541;-73
2023/07/25 08:01:40;;;;;;;6.10;5.30;;;;;;;25.08;63.85;97581.14;226219;1275;23271;-74
2023/07/25 08:06:50;;;;;;;6.20;5.60;;;;;;;25.18;63.93;97581.80;226154;1273;22577;-74
2023/07/25 08:12:15;;;;;;;6.30;5.70;;;;;;;25.25;63.32;97572.94;226172;1275;22541;-73
2023/07/25 08:17:21;;;;;;;6.30;5.50;;;;;;;25.32;63.31;97568.27;226235;1263;22575;-73
2023/07/25 08:22:26;;;;;;;6.40;5.40;;;;;;;25.39;63.29;97568.43;226238;1273;26974;-73
2023/07/25 08:28:24;;;;;;;6.30;5.70;;;;;;;25.60;63.55;97555.99;226148;1275;22704;-73
2023/07/25 08:33:31;;;;;;;6.30;5.70;;;;;;;25.80;62.66;97546.75;226511;1269;22282;-73
2023/07/25 08:38:54;;;;;;;7.00;6.00;;;;;;;26.03;62.87;97535.34;226512;1270;22534;-73
2023/07/25 08:44:03;;;;;;;7.00;6.10;;;;;;;26.32;62.88;97527.98;226385;1264;22544;-73
2023/07/25 08:49:10;;;;;;;5.80;5.20;;;;;;;26.73;62.61;97512.39;226122;1275;22542;-73
2023/07/25 08:54:19;;;;;;;5.80;5.10;;;;;;;27.16;61.85;97520.89;226209;1269;22545;-73
2023/07/25 08:59:25;;;;;;;5.00;4.50;;;;;;;27.55;60.94;97518.20;226394;1274;22541;-73
2023/07/25 09:04:31;;;;;;;4.70;4.10;;;;;;;28.02;59.00;97512.08;226339;1269;22538;-72
2023/07/25 09:09:33;;;;;;;4.70;4.30;;;;;;;28.01;56.32;97509.09;226570;1269;22726;-73
2023/07/25 09:14:52;;;;;;;4.40;4.00;;;;;;;27.94;56.57;97500.06;226271;1270;26103;-73
2023/07/25 09:20:32;;;;;;;5.60;4.10;;;;;;;28.12;56.24;97506.11;226165;1276;24297;-73
2023/07/25 09:25:44;;;;;;;4.70;4.20;;;;;;;28.06;55.06;97505.52;226495;1269;22551;-73
2023/07/25 09:30:49;;;;;;;6.80;4.20;;;;;;;28.05;55.01;97499.59;226299;1273;22590;-72
2023/07/25 09:35:54;;;;;;;5.50;4.70;;;;;;;28.14;55.39;97491.30;226348;1258;22541;-72
2023/07/25 09:41:18;;;;;;;4.60;4.20;;;;;;;28.21;54.55;97491.42;226283;1269;22559;-72
2023/07/25 09:46:31;;;;;;;4.30;3.90;;;;;;;27.98;53.99;97501.05;226383;1269;22615;-72
2023/07/25 09:51:36;;;;;;;4.30;3.90;;;;;;;27.60;54.22;97493.42;226577;1269;22544;-73
2023/07/25 09:56:41;;;;;;;4.10;3.70;;;;;;;27.30;54.80;97502.24;226139;1269;24208;-72
2023/07/25 10:01:45;;;;;;;8.00;5.60;;;;;;;27.03;54.79;97500.70;225988;1260;22549;-72
2023/07/25 10:06:51;;;;;;;7.90;6.00;;;;;;;26.74;55.33;97501.42;226252;1260;22553;-71
2023/07/25 10:11:56;;;;;;;7.20;6.40;;;;;;;26.33;56.10;97490.63;226242;1275;22540;-72
2023/07/25 10:17:01;;;;;;;7.20;6.20;;;;;;;26.04;56.72;97491.13;226076;1257;22524;-71
2023/07/25 10:22:14;;;;;;;7.20;6.40;;;;;;;25.92;57.19;97485.38;226120;1269;22892;-71
2023/07/25 10:27:18;;;;;;;6.90;6.20;;;;;;;25.90;57.26;97481.39;225954;1272;22567;-72
2023/07/25 10:32:24;;;;;;;6.40;5.90;;;;;;;25.76;57.55;97477.50;226273;1273;25346;-72
2023/07/25 10:37:38;;;;;;;7.20;6.20;;;;;;;25.67;57.90;97480.88;226242;1275;22656;-72
2023/07/25 10:42:51;;;;;;;6.40;5.80;;;;;;;25.73;58.22;97466.84;226232;1253;23001;-72
2023/07/25 10:48:26;;;;;;;7.40;5.80;;;;;;;25.92;57.99;97453.08;226081;1260;140425;-72
2023/07/25 10:53:28;;;;;;;6.70;6.00;;;;;;;26.16;57.68;97448.73;226312;1269;22533;-72
2023/07/25 10:58:37;;;;;;;10.70;5.80;;;;;;;26.33;57.62;97441.05;226429;1260;22664;-72
2023/07/25 11:03:39;;;;;;;7.00;5.70;;;;;;;26.37;57.09;97435.92;226478;1260;25587;-72
2023/07/25 11:08:42;;;;;;;6.30;5.70;;;;;;;26.37;57.25;97438.25;226292;1259;23223;-73
2023/07/25 11:14:07;;;;;;;9.10;5.30;;;;;;;26.32;57.30;97437.45;226259;1269;25389;-73
2023/07/25 11:19:10;;;;;;;8.50;5.70;;;;;;;26.16;57.17;97425.84;226399;1270;22545;-73
2023/07/25 11:24:12;;;;;;;6.00;5.40;;;;;;;25.95;57.05;97426.10;226320;1272;24277;-73
2023/07/25 11:29:17;;;;;;;6.50;5.40;;;;;;;25.63;57.75;97431.85;226440;1269;22544;-73
2023/07/25 11:34:20;;;;;;;6.40;5.40;;;;;;;25.40;58.68;97434.17;226428;1260;22530;-73
2023/07/25 11:39:22;;;;;;;6.70;6.10;;;;;;;25.12;59.52;97434.73;226520;1269;22564;-72
2023/07/25 11:44:25;;;;;;;7.50;5.80;;;;;;;24.87;60.41;97440.13;226456;1273;22660;-73
2023/07/25 11:49:30;;;;;;;5.90;4.70;;;;;;;24.65;61.17;97448.62;226479;1272;22553;-74
2023/07/25 11:54:37;;;;;;;4.10;3.70;;;;;;;24.52;61.62;97451.20;226536;1272;25246;-74
2023/07/25 11:59:40;;;;;;;4.20;3.80;;;;;;;24.29;61.76;97452.05;226202;1275;22902;-73
2023/07/25 12:04:44;;;;;;;6.10;3.90;;;;;;;24.09;62.89;97465.06;226391;1275;22550;-73
2023/07/25 12:09:54;;;;;;;6.40;5.80;;;;;;;23.96;63.65;97460.91;226435;1269;23291;-73
2023/07/25 12:15:01;;;;;;;8.30;6.20;;;;;;;23.69;64.26;97461.36;226473;1266;22548;-73
2023/07/25 12:20:21;;;;;;;8.10;6.90;;;;;;;23.33;65.04;97459.17;226365;1257;22544;-73
2023/07/25 12:25:23;;;;;;;6.60;5.90;;;;;;;23.05;65.98;97459.24;226433;1268;22728;-74
2023/07/25 12:30:26;;;;;;;10.00;6.50;;;;;;;22.83;66.83;97463.39;226362;1260;24243;-73
2023/07/25 12:35:33;;;;;;;5.30;4.20;;;;;;;22.61;67.47;97463.04;226502;1252;22582;-73
2023/07/25 12:40:39;;;;;;;4.30;3.80;;;;;;;22.41;68.07;97450.97;226317;1272;22559;-74
2023/07/25 12:46:10;;;;;;;4.90;4.30;;;;;;;22.28;68.63;97447.54;226312;1269;22529;-74
2023/07/25 12:52:00;;;;;;;;;;;;;;;;;;;;;
2023/07/25 12:57:28;;;;;;;6.40;4.10;;;;;;;21.98;69.75;97427.72;226213;1259;22656;-75
2023/07/25 13:03:17;;;;;;;4.80;4.30;;;;;;;22.01;70.32;97436.30;226197;1269;22576;-76
2023/07/25 13:08:42;;;;;;;5.30;4.20;;;;;;;21.99;70.61;97431.82;226178;1253;22550;-76
2023/07/25 13:14:20;;;;;;;3.90;3.60;;;;;;;22.01;71.16;97419.14;225880;1259;22898;-76
2023/07/25 13:19:43;;;;;;;5.20;3.80;;;;;;;22.12;71.21;97416.59;226134;1268;24229;-76
2023/07/25 13:25:12;;;;;;;4.70;3.80;;;;;;;22.17;71.14;97417.80;226183;1259;24227;-77
2023/07/25 13:30:20;;;;;;;3.90;3.50;;;;;;;22.19;71.21;97419.77;226420;1269;22561;-75
2023/07/25 13:35:39;;;;;;;4.90;4.10;;;;;;;22.15;71.40;97416.05;226325;1269;22520;-72
2023/07/25 13:40:45;;;;;;;5.00;3.90;;;;;;;22.13;71.30;97407.27;226359;1269;22536;-73
2023/07/25 13:46:50;;;;;;;3.90;3.60;;;;;;;22.05;71.57;97417.48;226357;1272;22557;-73
2023/07/25 13:52:09;;;;;;;5.30;3.70;;;;;;;21.96;71.95;97428.46;226085;1262;23262;-74
2023/07/25 13:57:11;;;;;;;4.80;4.20;;;;;;;21.92;72.13;97443.27;226063;1260;22541;-74
2023/07/25 14:02:37;;;;;;;4.70;4.20;;;;;;;21.85;72.38;97455.11;225945;1256;22557;-74
2023/07/25 14:07:52;;;;;;;6.00;4.40;;;;;;;21.71;72.56;97451.66;226108;1268;22825;-74
2023/07/25 14:12:57;;;;;;;5.10;4.60;;;;;;;21.58;72.67;97455.48;226151;1269;23265;-74
2023/07/25 14:18:43;;;;;;;4.90;4.40;;;;;;;21.50;73.09;97441.94;226443;1275;22521;-74
2023/07/25 14:23:54;;;;;;;4.10;2.80;;;;;;;21.42;73.11;97453.91;226764;1275;22957;-74
2023/07/25 14:29:58;;;;;;;;;;;;;;;;;;;;;
2023/07/25 14:35:21;;;;;;;3.40;3.10;;;;;;;21.22;73.19;97470.25;227027;1275;23177;-75
2023/07/25 14:41:03;;;;;;;5.30;3.60;;;;;;;21.01;73.49;97462.06;226704;1275;24250;-74
2023/07/25 14:46:55;;;;;;;3.90;3.50;;;;;;;20.76;73.99;97464.08;226936;1270;22529;-74
2023/07/25 14:52:40;;;;;;;3.60;2.80;;;;;;;20.63;74.86;97461.58;226756;1275;22556;-74
2023/07/25 14:58:05;;;;;;;4.50;2.90;;;;;;;20.56;74.86;97450.07;226680;1275;25229;-73
2023/07/25 15:03:30;;;;;;;3.90;3.10;;;;;;;20.44;75.05;97463.27;226973;1275;22529;-74
2023/07/25 15:09:55;;;;;;;3.20;2.70;;;;;;;20.15;75.47;97462.02;226963;1275;22534;-74
2023/07/25 15:16:47;;;;;;;;;;;;;;;;;;;;;
2023/07/25 15:22:26;;;;;;;;;;;;;;;;;;;;;
2023/07/25 15:28:32;;;;;;;3.30;3.00;;;;;;;19.26;76.57;97448.11;226918;1275;22550;-74
2023/07/25 15:34:27;;;;;;;4.20;3.10;;;;;;;19.07;77.15;97445.95;226985;1272;22671;-75
2023/07/25 15:40:55;;;;;;;4.30;3.30;;;;;;;18.91;77.53;97433.83;226755;1275;22573;-76
2023/07/25 15:47:07;;;;;;;3.90;3.50;;;;;;;18.82;77.99;97428.78;226843;1275;22540;-75
2023/07/25 15:53:30;;;;;;;3.60;3.30;;;;;;;18.83;78.25;97426.48;226818;1268;22525;-74
2023/07/25 15:59:52;;;;;;;;;;;;;;;;;;;;;
2023/07/25 16:05:44;;;;;;;3.10;2.80;;;;;;;18.76;78.53;97428.38;226781;1275;24235;-74
2023/07/25 16:11:38;;;;;;;;;;;;;;;;;;;;;
2023/07/25 16:16:49;;;;;;;4.00;2.70;;;;;;;18.88;78.97;97430.24;226852;1275;22520;-74
2023/07/25 16:23:26;;;;;;;3.90;3.50;;;;;;;19.04;79.08;97424.61;226901;1275;22531;-75
2023/07/25 16:29:11;;;;;;;3.80;3.10;;;;;;;19.24;79.00;97435.36;227179;1275;24372;-75
2023/07/25 16:40:32;;;;;;;;;;;;;;;;;;;;;
2023/07/25 16:45:52;;;;;;;5.30;3.40;;;;;;;20.26;78.03;97438.85;226949;1275;24214;-74
2023/07/25 16:52:04;;;;;;;4.30;3.10;;;;;;;20.34;76.92;97443.76;227014;1275;22526;-74
2023/07/25 16:57:32;;;;;;;4.00;3.20;;;;;;;20.33;76.65;97440.52;226803;1275;22614;-75
2023/07/25 17:03:18;;;;;;;;;;;;;;;;;;;;;
2023/07/25 17:14:26;;;;;;;5.20;4.00;;;;;;;20.31;76.41;97433.08;226991;1272;22529;-74
2023/07/25 17:20:31;;;;;;;;;;;;;;;;;;;;;
2023/07/25 17:26:37;;;;;;;4.30;3.80;;;;;;;20.24;76.32;97433.35;226938;1275;22624;-74
2023/07/25 17:32:43;;;;;;;5.30;4.40;;;;;;;20.25;76.17;97436.14;226775;1275;22589;-74
2023/07/25 17:38:50;;;;;;;6.00;4.70;;;;;;;20.12;75.88;97438.50;226859;1275;24271;-74
2023/07/25 17:45:23;;;;;;;;;;;;;;;;;;;;;
2023/07/25 17:58:53;;;;;;;;;;;;;;;;;;;;;
2023/07/25 18:05:07;;;;;;;;;;;;;;;;;;;;;
2023/07/25 18:16:56;;;;;;;5.30;4.70;;;;;;;19.06;77.49;97457.15;226994;1275;22530;-74
2023/07/25 18:22:39;;;;;;;7.50;5.50;;;;;;;18.89;77.91;97464.98;226843;1275;22545;-74
2023/07/25 18:27:52;;;;;;;7.30;5.60;;;;;;;18.75;78.44;97459.52;226876;1272;22533;-73
2023/07/25 18:33:30;;;;;;;;;;;;;;;18.62;78.69;97461.65;226880;1268;23024;-74
2023/07/25 18:39:14;;;;;;;6.70;4.90;;;;;;;18.54;79.04;97471.44;226862;1272;22920;-74
2023/07/25 18:45:38;;;;;;;6.50;4.80;;;;;;;18.46;79.46;97462.94;226764;1275;22603;-74
2023/07/25 18:51:14;;;;;;;8.70;5.50;;;;;;;18.45;79.79;97462.57;226642;1275;22529;-74
2023/07/25 18:57:33;;;;;;;6.50;5.80;;;;;;;18.46;79.78;97476.84;226923;1275;22548;-74
2023/07/25 19:03:39;;;;;;;6.00;5.40;;;;;;;18.46;79.93;97472.20;226772;1275;25240;-74
2023/07/25 19:10:18;;;;;;;5.50;4.90;;;;;;;18.47;79.99;97487.82;226871;1275;22688;-74
2023/07/25 19:23:39;;;;;;;7.60;6.30;;;;;;;18.36;80.53;97535.92;226649;1275;22523;-74
2023/07/25 19:36:01;;;;;;;7.00;6.00;;;;;;;18.20;80.71;97541.75;226874;1275;22537;-74
2023/07/25 19:42:45;;;;;;;8.20;7.10;;;;;;;18.13;81.21;97541.26;226910;1275;22548;-74
2023/07/25 19:48:26;;;;;;;8.80;7.70;;;;;;;18.04;81.20;97536.66;226665;1275;22549;-74
2023/07/25 19:54:51;;;;;;;7.70;6.40;;;;;;;17.99;81.55;97538.09;226887;1275;22577;-74
2023/07/25 20:00:30;;;;;;;8.30;7.20;;;;;;;17.91;81.73;97543.50;226893;1275;22548;-73
2023/07/25 20:06:37;;;;;;;;;;;;;;;;;;;;;
2023/07/25 20:25:15;;;;;;;;;;;;;;;;;;;;;
2023/07/25 20:31:09;;;;;;;;;;;;;;;;;;;;;
2023/07/25 20:37:13;;;;;;;9.10;7.70;;;;;;;17.73;83.30;97564.35;226772;1275;24158;-74
2023/07/25 20:42:54;;;;;;;13.60;8.40;;;;;;;17.67;83.54;97549.48;227038;1275;22537;-74
2023/07/25 20:49:31;;;;;;;10.20;7.60;;;;;;;17.65;83.92;97534.84;227020;1275;22569;-74
2023/07/25 21:02:25;;;;;;;9.60;8.50;;;;;;;17.60;84.53;97549.48;226579;1275;22529;-75
2023/07/25 21:08:57;;;;;;;;;;;;;;;;;;;;;
2023/07/25 21:14:56;;;;;;;;;;;;;;;;;;;;;
2023/07/25 21:21:32;;;;;;;10.00;8.10;;;;;;;17.55;84.53;97540.70;226586;1275;22519;-74
2023/07/25 21:34:31;;;;;;;;;;;;;;;;;;;;;
2023/07/25 21:40:50;;;;;;;9.20;7.80;;;;;;;17.37;84.99;97548.08;226971;1275;22536;-74
2023/07/25 21:47:29;;;;;;;8.80;7.80;;;;;;;17.32;85.27;97540.16;226959;1275;24212;-74
2023/07/25 21:53:19;;;;;;;9.50;8.20;;;;;;;17.32;85.31;97546.94;226825;1275;22539;-74
2023/07/25 22:12:52;;;;;;;;;;;;;;;;;;;;;
2023/07/25 22:19:19;;;;;;;;;;;;;;;;;;;;;
2023/07/25 22:39:36;;;;;;;18.80;9.90;;;;;;;16.87;85.55;97508.74;226445;1275;23261;-73
2023/07/25 22:59:51;;;;;;;16.30;8.80;;;;;;;16.51;86.02;97532.27;226533;1275;22545;-73
2023/07/25 23:12:42;;;;;;;12.30;8.80;;;;;;;16.42;86.44;97530.95;226985;1275;22557;-73
2023/07/25 23:24:02;;;;;;;12.80;7.80;;;;;;;16.43;86.92;97543.06;226931;1252;22579;-73
2023/07/25 23:30:03;;;;;;;;;;;;;;;;;;;;;
2023/07/25 23:43:10;;;;;;;12.20;8.20;;;;;;;16.41;87.06;97576.30;227006;1275;22564;-74
2023/07/25 23:49:16;;;;;;;9.70;8.40;;;;;;;16.40;87.12;97574.38;226974;1273;22536;-73
2023/07/25 23:56:08;;;;;;;;;;;;;;;;;;;;;
